createdAt,value
2018-01-12T00:00:12.768Z,93.41
2018-01-12T00:01:14.846Z,93.32
2018-01-12T00:02:29.139Z,92.56
2018-01-12T00:03:31.151Z,93.23
2018-01-12T00:04:33.171Z,93.32
2018-01-12T00:05:35.144Z,93.32
2018-01-12T00:06:37.123Z,93.32
2018-01-12T00:07:39.030Z,93.60
2018-01-12T00:08:41.029Z,93.32
2018-01-12T00:09:43.029Z,93.51
2018-01-12T00:10:45.100Z,93.89
2018-01-12T00:11:59.431Z,93.56
2018-01-12T00:13:01.458Z,93.75
2018-01-12T00:14:03.403Z,94.23
2018-01-12T00:15:05.400Z,94.08
2018-01-12T00:16:07.388Z,93.70
2018-01-12T00:17:09.389Z,93.70
2018-01-12T00:18:11.345Z,93.32
2018-01-12T00:19:13.331Z,93.23
2018-01-12T00:20:15.330Z,93.13
2018-01-12T00:21:29.694Z,93.51
2018-01-12T00:22:31.689Z,93.41
2018-01-12T00:23:33.724Z,93.56
2018-01-12T00:24:35.683Z,93.70
2018-01-12T00:25:37.634Z,94.03
2018-01-12T00:26:39.566Z,93.99
2018-01-12T00:27:41.564Z,94.08
2018-01-12T00:28:43.604Z,93.41
2018-01-12T00:29:45.552Z,93.23
2018-01-12T00:30:59.840Z,93.41
2018-01-12T00:32:01.880Z,94.03
2018-01-12T00:33:03.816Z,94.37
2018-01-12T00:34:05.808Z,94.37
2018-01-12T00:35:07.769Z,94.08
2018-01-12T00:36:09.686Z,94.32
2018-01-12T00:37:11.770Z,94.03
2018-01-12T00:38:13.718Z,94.42
2018-01-12T00:39:15.696Z,94.79
2018-01-12T00:40:29.988Z,94.79
2018-01-12T00:41:31.988Z,94.51
2018-01-12T00:42:33.994Z,94.42
2018-01-12T00:43:35.978Z,94.89
2018-01-12T00:44:37.897Z,95.08
2018-01-12T00:45:39.833Z,94.79
2018-01-12T00:46:41.826Z,94.46
2018-01-12T00:47:43.883Z,94.18
2018-01-12T00:48:45.893Z,94.37
2018-01-12T00:50:00.439Z,94.51
2018-01-12T00:51:02.456Z,94.60
2018-01-12T00:52:04.458Z,95.08
2018-01-12T00:53:06.465Z,94.65
2018-01-12T00:54:08.376Z,94.70
2018-01-12T00:55:10.312Z,94.65
2018-01-12T00:56:12.231Z,94.65
2018-01-12T00:57:14.215Z,94.37
2018-01-12T00:58:16.172Z,94.37
2018-01-12T00:59:30.490Z,94.27
2018-01-12T01:00:32.516Z,94.27
2018-01-12T01:01:34.523Z,94.27
2018-01-12T01:02:36.484Z,94.46
2018-01-12T01:03:38.461Z,94.46
2018-01-12T01:04:40.382Z,94.56
2018-01-12T01:05:42.577Z,94.08
2018-01-12T01:06:44.544Z,93.60
2018-01-12T01:07:46.546Z,93.41
2018-01-12T01:09:00.920Z,93.51
2018-01-12T01:10:02.979Z,93.79
2018-01-12T01:11:04.935Z,93.89
2018-01-12T01:12:06.925Z,93.89
2018-01-12T01:13:09.076Z,93.37
2018-01-12T01:14:11.077Z,93.13
2018-01-12T01:15:13.059Z,93.56
2018-01-12T01:16:15.052Z,93.27
2018-01-12T01:17:17.350Z,93.46
2018-01-12T01:18:31.652Z,93.65
2018-01-12T01:19:33.661Z,93.94
2018-01-12T01:20:35.710Z,94.13
2018-01-12T01:21:37.656Z,94.23
2018-01-12T01:22:39.588Z,94.13
2018-01-12T01:23:41.510Z,94.51
2018-01-12T01:24:43.492Z,94.23
2018-01-12T01:25:45.560Z,94.51
2018-01-12T01:26:47.592Z,93.37
2018-01-12T01:28:01.892Z,93.79
2018-01-12T01:29:03.901Z,93.23
2018-01-12T01:30:05.885Z,92.94
2018-01-12T01:31:07.894Z,92.75
2018-01-12T01:32:09.869Z,92.56
2018-01-12T01:33:11.874Z,92.66
2018-01-12T01:34:13.829Z,92.94
2018-01-12T01:35:15.876Z,92.56
2018-01-12T01:36:17.873Z,92.66
2018-01-12T01:37:32.262Z,92.94
2018-01-12T01:38:34.209Z,92.56
2018-01-12T01:39:36.402Z,92.37
2018-01-12T01:40:38.422Z,92.66
2018-01-12T01:41:40.351Z,92.94
2018-01-12T01:42:42.306Z,92.66
2018-01-12T01:43:44.301Z,92.32
2018-01-12T01:44:46.327Z,93.41
2018-01-12T01:45:48.361Z,92.94
2018-01-12T01:47:02.901Z,92.37
2018-01-12T01:48:04.941Z,92.23
2018-01-12T01:49:06.881Z,92.61
2018-01-12T01:50:08.890Z,93.27
2018-01-12T01:51:10.866Z,92.42
2018-01-12T01:52:12.811Z,93.08
2018-01-12T01:53:14.819Z,92.99
2018-01-12T01:54:16.808Z,93.46
2018-01-12T01:55:18.795Z,93.37
2018-01-12T01:56:33.169Z,92.71
2018-01-12T01:57:35.174Z,93.08
2018-01-12T01:58:37.208Z,92.61
2018-01-12T01:59:39.185Z,92.56
2018-01-12T02:00:41.106Z,93.04
2018-01-12T02:01:43.040Z,93.04
2018-01-12T02:02:45.047Z,92.27
2018-01-12T02:03:47.143Z,92.66
2018-01-12T02:04:49.094Z,92.56
2018-01-12T02:06:03.463Z,92.27
2018-01-12T02:07:05.504Z,92.18
2018-01-12T02:08:07.452Z,91.80
2018-01-12T02:09:09.462Z,91.80
2018-01-12T02:10:11.388Z,92.27
2018-01-12T02:11:13.306Z,92.66
2018-01-12T02:12:15.609Z,92.61
2018-01-12T02:13:17.625Z,92.61
2018-01-12T02:14:19.690Z,92.42
2018-01-12T02:15:33.954Z,92.99
2018-01-12T02:16:35.979Z,93.18
2018-01-12T02:17:38.150Z,92.99
2018-01-12T02:18:40.176Z,93.27
2018-01-12T02:19:42.068Z,93.08
2018-01-12T02:20:44.005Z,92.85
2018-01-12T02:21:46.030Z,92.27
2018-01-12T02:22:48.063Z,92.75
2018-01-12T02:23:50.067Z,92.61
2018-01-12T02:25:04.343Z,92.80
2018-01-12T02:26:06.340Z,93.08
2018-01-12T02:27:08.345Z,93.04
2018-01-12T02:28:10.413Z,93.13
2018-01-12T02:29:12.301Z,93.46
2018-01-12T02:30:14.207Z,92.85
2018-01-12T02:31:16.208Z,92.85
2018-01-12T02:32:18.284Z,92.42
2018-01-12T02:33:20.216Z,92.90
2018-01-12T02:34:34.545Z,93.46
2018-01-12T02:35:36.737Z,93.46
2018-01-12T02:36:38.745Z,93.84
2018-01-12T02:37:40.744Z,94.51
2018-01-12T02:38:42.690Z,94.32
2018-01-12T02:39:44.627Z,93.94
2018-01-12T02:40:46.809Z,94.13
2018-01-12T02:41:48.801Z,93.65
2018-01-12T02:42:50.791Z,94.23
2018-01-12T02:44:05.247Z,94.13
2018-01-12T02:45:07.206Z,94.23
2018-01-12T02:46:09.165Z,94.70
2018-01-12T02:47:11.156Z,94.60
2018-01-12T02:48:13.203Z,95.03
2018-01-12T02:49:15.108Z,95.46
2018-01-12T02:50:17.106Z,96.17
2018-01-12T02:51:19.104Z,96.22
2018-01-12T02:52:21.173Z,96.31
2018-01-12T02:53:35.528Z,96.12
2018-01-12T02:54:37.532Z,96.41
2018-01-12T02:55:39.547Z,95.55
2018-01-12T02:56:41.532Z,95.65
2018-01-12T02:57:43.825Z,95.08
2018-01-12T02:58:46.045Z,95.65
2018-01-12T02:59:48.186Z,96.31
2018-01-12T03:00:50.420Z,95.84
2018-01-12T03:01:52.393Z,96.22
2018-01-12T03:03:06.697Z,95.94
2018-01-12T03:04:08.677Z,96.41
2018-01-12T03:05:10.654Z,96.12
2018-01-12T03:06:12.654Z,96.03
2018-01-12T03:07:14.637Z,96.41
2018-01-12T03:08:16.511Z,95.27
2018-01-12T03:09:18.480Z,96.22
2018-01-12T03:10:20.472Z,96.31
2018-01-12T03:11:22.457Z,95.65
2018-01-12T03:12:36.740Z,95.17
2018-01-12T03:13:38.730Z,95.36
2018-01-12T03:14:40.698Z,95.12
2018-01-12T03:15:42.686Z,96.22
2018-01-12T03:16:44.595Z,96.50
2018-01-12T03:17:46.523Z,96.12
2018-01-12T03:18:48.494Z,96.12
2018-01-12T03:19:50.482Z,96.12
2018-01-12T03:20:52.473Z,96.31
2018-01-12T03:22:06.809Z,96.03
2018-01-12T03:23:08.799Z,96.12
2018-01-12T03:24:10.762Z,96.41
2018-01-12T03:25:12.715Z,96.22
2018-01-12T03:26:14.638Z,95.98
2018-01-12T03:27:16.533Z,96.26
2018-01-12T03:28:18.516Z,96.45
2018-01-12T03:29:20.511Z,96.45
2018-01-12T03:30:22.494Z,96.64
2018-01-12T03:31:36.746Z,96.83
2018-01-12T03:32:38.724Z,97.02
2018-01-12T03:33:40.684Z,96.74
2018-01-12T03:34:42.658Z,97.22
2018-01-12T03:35:44.573Z,96.64
2018-01-12T03:36:46.475Z,96.36
2018-01-12T03:37:48.459Z,96.64
2018-01-12T03:38:50.441Z,96.74
2018-01-12T03:39:52.407Z,96.83
2018-01-12T03:41:06.722Z,97.12
2018-01-12T03:42:08.813Z,97.02
2018-01-12T03:43:10.705Z,97.22
2018-01-12T03:44:12.718Z,96.26
2018-01-12T03:45:14.650Z,96.55
2018-01-12T03:46:16.568Z,96.83
2018-01-12T03:47:18.793Z,96.31
2018-01-12T03:48:20.770Z,96.12
2018-01-12T03:49:22.749Z,96.08
2018-01-12T03:50:37.157Z,95.70
2018-01-12T03:51:39.149Z,96.26
2018-01-12T03:52:41.121Z,96.12
2018-01-12T03:53:43.113Z,95.98
2018-01-12T03:54:45.037Z,96.26
2018-01-12T03:55:47.000Z,95.94
2018-01-12T03:56:49.018Z,96.22
2018-01-12T03:57:51.051Z,96.31
2018-01-12T03:58:52.986Z,96.12
2018-01-12T04:00:07.535Z,95.55
2018-01-12T04:01:09.540Z,95.46
2018-01-12T04:02:11.531Z,95.46
2018-01-12T04:03:13.513Z,95.70
2018-01-12T04:04:15.454Z,96.64
2018-01-12T04:05:17.392Z,96.83
2018-01-12T04:06:19.433Z,96.83
2018-01-12T04:07:21.386Z,97.12
2018-01-12T04:08:23.380Z,97.12
2018-01-12T04:09:37.798Z,97.12
2018-01-12T04:10:39.749Z,97.12
2018-01-12T04:11:42.000Z,97.12
2018-01-12T04:12:43.996Z,96.64
2018-01-12T04:13:45.902Z,97.02
2018-01-12T04:14:47.848Z,96.83
2018-01-12T04:15:49.848Z,97.41
2018-01-12T04:16:52.085Z,97.22
2018-01-12T04:17:54.059Z,97.22
2018-01-12T04:19:08.368Z,97.50
2018-01-12T04:20:10.419Z,97.31
2018-01-12T04:21:12.345Z,97.31
2018-01-12T04:22:14.356Z,97.02
2018-01-12T04:23:16.311Z,97.31
2018-01-12T04:24:18.218Z,97.12
2018-01-12T04:25:20.219Z,97.02
2018-01-12T04:26:22.228Z,96.36
2018-01-12T04:27:24.264Z,96.45
2018-01-12T04:28:38.549Z,96.93
2018-01-12T04:29:40.542Z,97.02
2018-01-12T04:30:42.534Z,96.74
2018-01-12T04:31:44.549Z,97.12
2018-01-12T04:32:46.477Z,96.93
2018-01-12T04:33:48.403Z,97.02
2018-01-12T04:34:50.406Z,97.12
2018-01-12T04:35:52.394Z,97.22
2018-01-12T04:36:54.405Z,97.50
2018-01-12T04:38:08.786Z,97.41
2018-01-12T04:39:10.761Z,97.22
2018-01-12T04:40:12.767Z,97.31
2018-01-12T04:41:14.775Z,97.60
2018-01-12T04:42:16.685Z,97.31
2018-01-12T04:43:18.621Z,97.41
2018-01-12T04:44:20.591Z,97.69
2018-01-12T04:45:22.565Z,97.88
2018-01-12T04:46:24.580Z,97.50
2018-01-12T04:47:38.882Z,97.60
2018-01-12T04:48:40.846Z,97.78
2018-01-12T04:49:42.881Z,97.50
2018-01-12T04:50:44.839Z,97.22
2018-01-12T04:51:46.759Z,97.41
2018-01-12T04:52:48.745Z,97.22
2018-01-12T04:53:50.689Z,97.41
2018-01-12T04:54:52.666Z,96.64
2018-01-12T04:55:54.638Z,96.74
2018-01-12T04:57:08.992Z,97.02
2018-01-12T04:58:10.997Z,97.02
2018-01-12T04:59:12.956Z,97.02
2018-01-12T05:00:14.952Z,96.45
2018-01-12T05:01:16.884Z,96.64
2018-01-12T05:02:18.832Z,96.45
2018-01-12T05:03:20.891Z,97.02
2018-01-12T05:04:22.844Z,97.31
2018-01-12T05:05:24.885Z,97.22
2018-01-12T05:06:39.155Z,97.12
2018-01-12T05:07:41.156Z,97.12
2018-01-12T05:08:43.181Z,97.12
2018-01-12T05:09:45.199Z,96.83
2018-01-12T05:10:47.129Z,96.64
2018-01-12T05:11:49.077Z,97.31
2018-01-12T05:12:51.065Z,97.60
2018-01-12T05:13:53.069Z,97.60
2018-01-12T05:14:55.070Z,96.93
2018-01-12T05:16:09.337Z,97.31
2018-01-12T05:17:11.331Z,97.31
2018-01-12T05:18:13.371Z,97.31
2018-01-12T05:19:15.431Z,97.31
2018-01-12T05:20:17.376Z,97.69
2018-01-12T05:21:19.315Z,97.31
2018-01-12T05:22:21.608Z,97.31
2018-01-12T05:23:23.698Z,97.60
2018-01-12T05:24:25.738Z,97.45
2018-01-12T05:25:40.032Z,97.50
2018-01-12T05:26:42.042Z,97.41
2018-01-12T05:27:44.031Z,97.31
2018-01-12T05:28:46.046Z,97.02
2018-01-12T05:29:48.040Z,97.22
2018-01-12T05:30:49.968Z,97.02
2018-01-12T05:31:51.964Z,97.31
2018-01-12T05:32:53.974Z,97.22
2018-01-12T05:33:55.884Z,96.93
2018-01-12T05:35:10.040Z,97.12
2018-01-12T05:36:11.902Z,96.83
2018-01-12T05:37:13.771Z,97.12
2018-01-12T05:38:15.659Z,96.93
2018-01-12T05:39:17.466Z,96.93
2018-01-12T05:40:19.263Z,96.45
2018-01-12T05:41:21.148Z,97.02
2018-01-12T05:42:23.013Z,97.41
2018-01-12T05:43:24.876Z,96.83
2018-01-12T05:44:39.030Z,97.31
2018-01-12T05:45:40.896Z,96.97
2018-01-12T05:46:42.763Z,97.17
2018-01-12T05:47:44.649Z,97.26
2018-01-12T05:48:46.453Z,97.74
2018-01-12T05:49:48.271Z,98.11
2018-01-12T05:50:50.134Z,98.40
2018-01-12T05:51:52.007Z,97.17
2018-01-12T05:52:53.888Z,97.55
2018-01-12T05:54:08.031Z,97.74
2018-01-12T05:55:09.912Z,97.74
2018-01-12T05:56:11.787Z,98.11
2018-01-12T05:57:13.669Z,97.55
2018-01-12T05:58:15.475Z,97.97
2018-01-12T05:59:17.297Z,97.88
2018-01-12T06:00:19.178Z,97.50
2018-01-12T06:01:21.040Z,97.12
2018-01-12T06:02:22.903Z,96.83
2018-01-12T06:03:37.038Z,97.02
2018-01-12T06:04:38.907Z,97.02
2018-01-12T06:05:40.798Z,97.26
2018-01-12T06:06:42.683Z,97.45
2018-01-12T06:07:44.490Z,97.36
2018-01-12T06:08:46.292Z,98.21
2018-01-12T06:09:48.171Z,97.92
2018-01-12T06:10:50.039Z,98.11
2018-01-12T06:11:51.910Z,98.40
2018-01-12T06:13:06.067Z,98.40
2018-01-12T06:14:07.950Z,98.68
2018-01-12T06:15:09.819Z,98.21
2018-01-12T06:16:11.685Z,98.40
2018-01-12T06:17:13.489Z,98.02
2018-01-12T06:18:15.288Z,98.02
2018-01-12T06:19:17.150Z,98.30
2018-01-12T06:20:19.018Z,98.11
2018-01-12T06:21:20.885Z,97.64
2018-01-12T06:22:35.018Z,97.31
2018-01-12T06:23:36.880Z,96.88
2018-01-12T06:24:38.749Z,97.26
2018-01-12T06:25:40.612Z,97.26
2018-01-12T06:26:42.419Z,97.45
2018-01-12T06:27:44.237Z,97.36
2018-01-12T06:28:46.103Z,97.83
2018-01-12T06:29:47.973Z,97.45
2018-01-12T06:30:49.837Z,97.55
2018-01-12T06:32:04.043Z,97.83
2018-01-12T06:33:05.885Z,98.02
2018-01-12T06:34:07.772Z,98.40
2018-01-12T06:35:09.638Z,98.02
2018-01-12T06:36:11.439Z,98.02
2018-01-12T06:37:13.239Z,98.30
2018-01-12T06:38:15.108Z,97.74
2018-01-12T06:39:16.990Z,97.07
2018-01-12T06:40:18.861Z,97.07
2018-01-12T06:41:33.026Z,97.45
2018-01-12T06:42:34.902Z,97.83
2018-01-12T06:43:36.770Z,98.21
2018-01-12T06:44:38.641Z,98.02
2018-01-12T06:45:40.444Z,98.02
2018-01-12T06:46:42.264Z,98.11
2018-01-12T06:47:44.123Z,98.30
2018-01-12T06:48:45.987Z,98.68
2018-01-12T06:49:47.852Z,98.87
2018-01-12T06:51:02.042Z,98.68
2018-01-12T06:52:03.923Z,98.40
2018-01-12T06:53:05.791Z,99.26
2018-01-12T06:54:07.661Z,98.97
2018-01-12T06:55:09.467Z,98.78
2018-01-12T06:56:11.288Z,98.49
2018-01-12T06:57:13.157Z,98.40
2018-01-12T06:58:15.040Z,98.68
2018-01-12T06:59:16.910Z,98.87
2018-01-12T07:00:31.071Z,98.40
2018-01-12T07:01:32.954Z,97.83
2018-01-12T07:02:34.832Z,97.83
2018-01-12T07:03:36.722Z,97.64
2018-01-12T07:04:38.549Z,96.97
2018-01-12T07:05:40.372Z,97.17
2018-01-12T07:06:42.259Z,96.83
2018-01-12T07:07:44.141Z,96.93
2018-01-12T07:08:46.017Z,96.55
2018-01-12T07:10:00.169Z,95.98
2018-01-12T07:11:02.033Z,95.41
2018-01-12T07:12:03.896Z,96.36
2018-01-12T07:13:05.764Z,95.65
2018-01-12T07:14:07.574Z,95.84
2018-01-12T07:15:09.366Z,96.03
2018-01-12T07:16:11.235Z,96.22
2018-01-12T07:17:13.095Z,96.31
2018-01-12T07:18:14.964Z,95.36
2018-01-12T07:19:29.125Z,95.98
2018-01-12T07:20:31.016Z,96.03
2018-01-12T07:21:32.904Z,95.55
2018-01-12T07:22:34.773Z,95.41
2018-01-12T07:23:36.577Z,95.84
2018-01-12T07:24:38.376Z,95.51
2018-01-12T07:25:40.241Z,95.31
2018-01-12T07:26:42.115Z,94.84
2018-01-12T07:27:44.002Z,94.56
2018-01-12T07:28:58.141Z,95.03
2018-01-12T07:30:00.029Z,94.74
2018-01-12T07:31:01.886Z,94.89
2018-01-12T07:32:03.757Z,94.84
2018-01-12T07:33:05.568Z,95.12
2018-01-12T07:34:07.364Z,94.84
2018-01-12T07:35:09.232Z,94.74
2018-01-12T07:36:11.100Z,94.70
2018-01-12T07:37:12.972Z,95.12
2018-01-12T07:38:27.130Z,94.74
2018-01-12T07:39:29.017Z,94.84
2018-01-12T07:40:30.889Z,94.93
2018-01-12T07:41:32.784Z,94.46
2018-01-12T07:42:34.611Z,94.65
2018-01-12T07:43:36.416Z,93.99
2018-01-12T07:44:38.309Z,93.80
2018-01-12T07:45:40.198Z,93.04
2018-01-12T07:46:42.086Z,92.85
2018-01-12T07:47:56.248Z,92.85
2018-01-12T07:48:58.093Z,93.04
2018-01-12T07:49:59.961Z,92.85
2018-01-12T07:51:01.831Z,92.56
2018-01-12T07:52:03.639Z,92.28
2018-01-12T07:53:05.445Z,92.09
2018-01-12T07:54:07.336Z,92.47
2018-01-12T07:55:09.226Z,92.47
2018-01-12T07:56:11.092Z,92.09
2018-01-12T07:57:25.233Z,92.85
2018-01-12T07:58:27.103Z,93.04
2018-01-12T07:59:28.988Z,92.85
2018-01-12T08:00:30.855Z,93.51
2018-01-12T08:01:32.663Z,93.13
2018-01-12T08:02:34.485Z,93.04
2018-01-12T08:03:36.358Z,93.04
2018-01-12T08:04:38.242Z,93.80
2018-01-12T08:05:40.114Z,93.51
2018-01-12T08:06:54.274Z,94.37
2018-01-12T08:07:56.864Z,94.13
2018-01-12T08:08:58.756Z,94.32
2018-01-12T08:10:00.625Z,94.70
2018-01-12T08:11:02.453Z,94.89
2018-01-12T08:12:04.255Z,94.98
2018-01-12T08:13:06.124Z,95.55
2018-01-12T08:14:07.992Z,96.03
2018-01-12T08:15:09.862Z,95.93
2018-01-12T08:16:23.994Z,95.93
2018-01-12T08:17:25.859Z,96.12
2018-01-12T08:18:27.724Z,96.03
2018-01-12T08:19:29.601Z,96.22
2018-01-12T08:20:31.401Z,96.22
2018-01-12T08:21:33.206Z,95.55
2018-01-12T08:22:35.070Z,95.51
2018-01-12T08:23:36.940Z,94.70
2018-01-12T08:24:38.807Z,94.93
2018-01-12T08:25:52.993Z,94.46
2018-01-12T08:26:54.859Z,93.89
2018-01-12T08:27:56.734Z,93.89
2018-01-12T08:28:58.623Z,93.60
2018-01-12T08:30:00.432Z,93.51
2018-01-12T08:31:02.235Z,93.70
2018-01-12T08:32:04.086Z,94.46
2018-01-12T08:33:05.888Z,94.03
2018-01-12T08:34:07.738Z,94.32
2018-01-12T08:35:21.872Z,94.42
2018-01-12T08:36:23.741Z,94.60
2018-01-12T08:37:25.611Z,94.79
2018-01-12T08:38:27.507Z,94.60
2018-01-12T08:39:29.307Z,94.42
2018-01-12T08:40:31.134Z,94.84
2018-01-12T08:41:33.021Z,94.65
2018-01-12T08:42:34.886Z,94.18
2018-01-12T08:43:36.766Z,93.80
2018-01-12T08:44:50.975Z,93.89
2018-01-12T08:45:52.838Z,93.41
2018-01-12T08:46:54.711Z,93.41
2018-01-12T08:47:56.601Z,93.04
2018-01-12T08:48:58.409Z,93.51
2018-01-12T08:50:00.238Z,94.08
2018-01-12T08:51:02.106Z,94.03
2018-01-12T08:52:03.992Z,94.03
2018-01-12T08:53:05.861Z,94.13
2018-01-12T08:54:20.003Z,94.51
2018-01-12T08:55:21.896Z,94.89
2018-01-12T08:56:24.052Z,95.27
2018-01-12T08:57:32.192Z,94.98
2018-01-12T08:58:34.021Z,94.89
2018-01-12T08:59:35.842Z,95.17
2018-01-12T09:00:37.713Z,95.65
2018-01-12T09:01:39.584Z,95.07
2018-01-12T09:02:41.468Z,95.36
2018-01-12T09:03:55.610Z,95.46
2018-01-12T09:04:57.495Z,96.03
2018-01-12T09:05:59.366Z,96.03
2018-01-12T09:07:01.236Z,96.03
2018-01-12T09:08:03.062Z,95.65
2018-01-12T09:09:04.865Z,95.65
2018-01-12T09:10:06.755Z,95.27
2018-01-12T09:11:08.622Z,94.70
2018-01-12T09:12:10.515Z,94.89
2018-01-12T09:13:24.653Z,94.70
2018-01-12T09:14:26.542Z,94.60
2018-01-12T09:15:28.408Z,94.79
2018-01-12T09:16:30.284Z,94.79
2018-01-12T09:17:32.084Z,94.98
2018-01-12T09:18:33.885Z,94.42
2018-01-12T09:19:35.764Z,94.60
2018-01-12T09:20:37.621Z,94.79
2018-01-12T09:21:39.492Z,94.60
2018-01-12T09:22:53.630Z,94.32
2018-01-12T09:23:55.518Z,93.84
2018-01-12T09:24:57.392Z,94.13
2018-01-12T09:25:59.281Z,94.51
2018-01-12T09:27:01.083Z,94.70
2018-01-12T09:28:02.889Z,94.60
2018-01-12T09:29:04.777Z,94.98
2018-01-12T09:30:06.651Z,94.60
2018-01-12T09:31:08.532Z,94.70
2018-01-12T09:32:22.673Z,93.84
2018-01-12T09:33:24.555Z,93.84
2018-01-12T09:34:26.443Z,93.75
2018-01-12T09:35:28.323Z,93.46
2018-01-12T09:36:30.149Z,93.75
2018-01-12T09:37:31.953Z,93.46
2018-01-12T09:38:33.825Z,93.75
2018-01-12T09:39:35.713Z,93.56
2018-01-12T09:40:37.579Z,93.18
2018-01-12T09:41:51.724Z,93.46
2018-01-12T09:42:53.610Z,93.18
2018-01-12T09:43:55.481Z,93.08
2018-01-12T09:44:57.351Z,93.18
2018-01-12T09:45:59.156Z,92.99
2018-01-12T09:47:00.963Z,93.08
2018-01-12T09:48:02.857Z,93.08
2018-01-12T09:49:04.747Z,92.99
2018-01-12T09:50:06.618Z,93.08
2018-01-12T09:51:20.812Z,93.46
2018-01-12T09:52:22.696Z,93.27
2018-01-12T09:53:24.567Z,93.56
2018-01-12T09:54:26.458Z,92.80
2018-01-12T09:55:28.263Z,92.80
2018-01-12T09:56:30.074Z,92.99
2018-01-12T09:57:31.962Z,92.99
2018-01-12T09:58:33.853Z,92.80
2018-01-12T09:59:35.747Z,92.99
2018-01-12T10:00:49.907Z,93.56
2018-01-12T10:01:51.776Z,93.84
2018-01-12T10:02:53.669Z,94.03
2018-01-12T10:03:55.562Z,93.56
2018-01-12T10:04:57.372Z,93.27
2018-01-12T10:05:59.194Z,94.60
2018-01-12T10:07:01.065Z,94.23
2018-01-12T10:08:02.956Z,93.94
2018-01-12T10:09:04.828Z,94.32
2018-01-12T10:10:19.033Z,94.60
2018-01-12T10:11:20.898Z,94.70
2018-01-12T10:12:22.772Z,94.98
2018-01-12T10:13:24.646Z,94.51
2018-01-12T10:14:26.453Z,94.13
2018-01-12T10:15:28.278Z,94.03
2018-01-12T10:16:30.169Z,93.84
2018-01-12T10:17:32.059Z,93.18
2018-01-12T10:18:33.936Z,93.08
2018-01-12T10:19:48.096Z,93.65
2018-01-12T10:20:49.958Z,94.03
2018-01-12T10:21:51.834Z,94.03
2018-01-12T10:22:53.719Z,93.75
2018-01-12T10:23:55.550Z,93.75
2018-01-12T10:24:57.344Z,93.46
2018-01-12T10:25:59.213Z,93.37
2018-01-12T10:27:01.106Z,93.65
2018-01-12T10:28:02.974Z,93.89
2018-01-12T10:29:17.113Z,94.23
2018-01-12T10:30:18.974Z,93.84
2018-01-12T10:31:20.849Z,93.37
2018-01-12T10:32:22.741Z,93.56
2018-01-12T10:33:24.583Z,93.75
2018-01-12T10:34:26.407Z,93.46
2018-01-12T10:35:28.271Z,93.18
2018-01-12T10:36:30.140Z,93.27
2018-01-12T10:37:32.011Z,93.56
2018-01-12T10:38:46.154Z,93.37
2018-01-12T10:39:48.038Z,93.75
2018-01-12T10:40:49.913Z,93.56
2018-01-12T10:41:51.781Z,93.37
2018-01-12T10:42:53.588Z,93.56
2018-01-12T10:43:55.388Z,93.37
2018-01-12T10:44:57.257Z,93.65
2018-01-12T10:45:59.123Z,93.94
2018-01-12T10:47:01.086Z,94.42
2018-01-12T10:48:15.136Z,94.03
2018-01-12T10:49:17.002Z,94.42
2018-01-12T10:50:18.876Z,93.94
2018-01-12T10:51:20.741Z,93.37
2018-01-12T10:52:22.553Z,93.65
2018-01-12T10:53:24.366Z,93.84
2018-01-12T10:54:26.229Z,94.03
2018-01-12T10:55:28.097Z,94.42
2018-01-12T10:56:29.986Z,94.13
2018-01-12T10:57:44.131Z,94.03
2018-01-12T10:58:46.022Z,94.13
2018-01-12T10:59:47.922Z,93.56
2018-01-12T11:00:49.797Z,93.56
2018-01-12T11:01:51.626Z,93.94
2018-01-12T11:02:53.428Z,93.94
2018-01-12T11:03:55.300Z,94.03
2018-01-12T11:04:57.188Z,93.75
2018-01-12T11:05:59.060Z,93.27
2018-01-12T11:07:13.223Z,93.75
2018-01-12T11:08:15.116Z,93.84
2018-01-12T11:09:16.981Z,94.23
2018-01-12T11:10:18.852Z,93.65
2018-01-12T11:11:20.665Z,93.75
2018-01-12T11:12:22.499Z,94.42
2018-01-12T11:13:24.357Z,94.23
2018-01-12T11:14:26.253Z,94.51
2018-01-12T11:15:28.148Z,93.56
2018-01-12T11:16:42.276Z,94.13
2018-01-12T11:17:44.151Z,94.42
2018-01-12T11:18:46.039Z,93.65
2018-01-12T11:19:47.911Z,94.42
2018-01-12T11:20:49.737Z,94.13
2018-01-12T11:21:51.537Z,93.56
2018-01-12T11:22:53.411Z,93.37
2018-01-12T11:23:55.278Z,93.75
2018-01-12T11:24:57.144Z,93.37
2018-01-12T11:26:11.341Z,94.27
2018-01-12T11:27:13.252Z,94.42
2018-01-12T11:28:15.148Z,94.70
2018-01-12T11:29:17.024Z,94.70
2018-01-12T11:30:18.853Z,94.51
2018-01-12T11:31:20.676Z,94.42
2018-01-12T11:32:22.550Z,93.75
2018-01-12T11:33:24.422Z,92.99
2018-01-12T11:34:26.304Z,92.99
2018-01-12T11:35:40.460Z,93.37
2018-01-12T11:36:42.362Z,93.75
2018-01-12T11:37:44.227Z,93.94
2018-01-12T11:38:46.102Z,93.65
2018-01-12T11:39:47.926Z,93.75
2018-01-12T11:40:49.734Z,94.03
2018-01-12T11:41:51.618Z,93.94
2018-01-12T11:42:53.490Z,94.32
2018-01-12T11:43:55.388Z,93.75
2018-01-12T11:45:09.599Z,94.03
2018-01-12T11:46:11.482Z,93.84
2018-01-12T11:47:13.391Z,94.27
2018-01-12T11:48:15.274Z,93.99
2018-01-12T11:49:17.128Z,94.46
2018-01-12T11:50:18.902Z,94.74
2018-01-12T11:51:20.764Z,94.93
2018-01-12T11:52:22.634Z,94.65
2018-01-12T11:53:24.522Z,94.65
2018-01-12T11:54:38.671Z,94.89
2018-01-12T11:55:40.553Z,94.79
2018-01-12T11:56:42.423Z,94.13
2018-01-12T11:57:44.291Z,93.84
2018-01-12T11:58:46.104Z,92.99
2018-01-12T11:59:47.921Z,93.46
2018-01-12T12:00:49.797Z,93.94
2018-01-12T12:01:51.689Z,94.23
2018-01-12T12:02:53.585Z,94.03
2018-01-12T12:04:07.747Z,94.56
2018-01-12T12:05:09.609Z,94.56
2018-01-12T12:06:11.475Z,94.70
2018-01-12T12:07:13.352Z,94.79
2018-01-12T12:08:15.186Z,94.74
2018-01-12T12:09:17.007Z,94.65
2018-01-12T12:10:18.878Z,94.70
2018-01-12T12:11:20.770Z,94.74
2018-01-12T12:12:22.660Z,94.93
2018-01-12T12:13:36.803Z,95.31
2018-01-12T12:14:38.697Z,95.22
2018-01-12T12:15:40.587Z,95.50
2018-01-12T12:16:42.460Z,95.41
2018-01-12T12:17:44.267Z,96.26
2018-01-12T12:18:46.069Z,96.17
2018-01-12T12:19:47.941Z,95.50
2018-01-12T12:20:49.833Z,95.27
2018-01-12T12:21:51.720Z,94.89
2018-01-12T12:23:05.865Z,94.79
2018-01-12T12:24:07.752Z,94.70
2018-01-12T12:25:09.628Z,94.89
2018-01-12T12:26:11.515Z,93.94
2018-01-12T12:27:13.325Z,94.23
2018-01-12T12:28:15.153Z,93.94
2018-01-12T12:29:17.041Z,93.94
2018-01-12T12:30:18.910Z,94.13
2018-01-12T12:31:20.785Z,94.60
2018-01-12T12:32:34.996Z,94.03
2018-01-12T12:33:36.858Z,94.42
2018-01-12T12:34:38.736Z,93.89
2018-01-12T12:35:40.662Z,94.65
2018-01-12T12:36:42.517Z,94.79
2018-01-12T12:37:44.321Z,94.70
2018-01-12T12:38:46.189Z,94.13
2018-01-12T12:39:48.083Z,94.18
2018-01-12T12:40:49.979Z,94.27
2018-01-12T12:42:04.150Z,94.74
2018-01-12T12:43:06.042Z,94.84
2018-01-12T12:44:07.931Z,94.93
2018-01-12T12:45:09.806Z,94.93
2018-01-12T12:46:11.614Z,95.03
2018-01-12T12:47:13.418Z,94.56
2018-01-12T12:48:15.313Z,94.27
2018-01-12T12:49:17.179Z,94.84
2018-01-12T12:50:19.072Z,95.03
2018-01-12T12:51:33.213Z,95.31
2018-01-12T12:52:35.102Z,95.88
2018-01-12T12:53:36.971Z,95.60
2018-01-12T12:54:38.858Z,96.08
2018-01-12T12:55:40.690Z,96.08
2018-01-12T12:56:42.512Z,95.79
2018-01-12T12:57:44.379Z,95.98
2018-01-12T12:58:46.253Z,96.08
2018-01-12T12:59:48.117Z,96.45
2018-01-12T13:01:02.255Z,96.26
2018-01-12T13:02:04.124Z,96.83
2018-01-12T13:03:05.986Z,96.26
2018-01-12T13:04:07.863Z,96.92
2018-01-12T13:05:09.692Z,96.92
2018-01-12T13:06:11.520Z,96.55
2018-01-12T13:07:13.410Z,96.17
2018-01-12T13:08:15.300Z,96.26
2018-01-12T13:09:17.162Z,96.73
2018-01-12T13:10:31.307Z,96.92
2018-01-12T13:11:33.194Z,96.92
2018-01-12T13:12:35.070Z,96.55
2018-01-12T13:13:36.965Z,96.45
2018-01-12T13:14:38.796Z,96.36
2018-01-12T13:15:40.623Z,96.45
2018-01-12T13:16:42.563Z,96.17
2018-01-12T13:17:44.455Z,95.98
2018-01-12T13:18:46.350Z,95.98
2018-01-12T13:20:00.507Z,95.41
2018-01-12T13:21:02.376Z,95.22
2018-01-12T13:22:04.266Z,94.93
2018-01-12T13:23:06.135Z,95.41
2018-01-12T13:24:07.970Z,95.41
2018-01-12T13:25:09.789Z,96.08
2018-01-12T13:26:11.676Z,96.17
2018-01-12T13:27:13.551Z,96.08
2018-01-12T13:28:15.456Z,96.17
2018-01-12T13:29:29.587Z,96.17
2018-01-12T13:30:31.460Z,95.22
2018-01-12T13:31:33.350Z,95.41
2018-01-12T13:32:35.248Z,95.31
2018-01-12T13:33:37.076Z,95.69
2018-01-12T13:34:39.198Z,96.08